Time;durP1;ratioP1;P1;durP2;ratioP2;P2;SDS_P1;SDS_P2;PMS_P1;PMS_P2;Temp;Humidity;BMP_temperature;BMP_pressure;BME280_temperature;BME280_humidity;BME280_pressure;Samples;Min_cycle;Max_cycle;Signal;HPM_P1;HPM_P2
2022/12/28 00:02:23;;;;;;;;;6.50;5.00;;;;;11.58;61.31;101469.66;5043063;28;59285;-64
2022/12/28 00:04:48;;;;;;;;;4.75;3.00;;;;;11.59;61.78;101463.50;5040406;28;45516;-64
2022/12/28 00:07:13;;;;;;;;;10.25;5.75;;;;;11.58;61.79;101462.66;5043589;28;45791;-65
2022/12/28 00:09:39;;;;;;;;;4.75;3.00;;;;;11.57;61.96;101455.66;5043573;28;45325;-64
2022/12/28 00:12:04;;;;;;;;;6.75;3.00;;;;;11.58;61.82;101457.41;5040255;28;60952;-64
2022/12/28 00:14:30;;;;;;;;;4.25;4.25;;;;;11.57;61.80;101453.03;5052158;28;45339;-64
2022/12/28 00:16:55;;;;;;;;;5.50;4.00;;;;;11.61;61.59;101466.09;5048696;28;63971;-64
2022/12/28 00:19:20;;;;;;;;;4.00;3.00;;;;;11.61;61.46;101459.09;5049859;28;62684;-64
2022/12/28 00:21:46;;;;;;;;;3.00;3.00;;;;;11.63;61.38;101456.44;5053496;28;50297;-64
2022/12/28 00:24:18;;;;;;;;;4.75;4.00;;;;;11.65;61.69;101438.91;5047709;28;45496;-64
2022/12/28 00:26:44;;;;;;;;;4.00;3.00;;;;;11.65;61.70;101449.41;5053834;28;46179;-64
2022/12/28 00:29:10;;;;;;;;;4.25;3.25;;;;;11.66;61.67;101433.66;5039520;28;45458;-64
2022/12/28 00:31:36;;;;;;;;;7.00;4.00;;;;;11.68;61.44;101429.22;5047609;28;45525;-64
2022/12/28 00:34:02;;;;;;;;;4.00;4.00;;;;;11.68;61.17;101429.22;5047462;28;45419;-65
2022/12/28 00:36:28;;;;;;;;;5.00;3.75;;;;;11.68;61.72;101429.22;5051045;28;45485;-64
2022/12/28 00:38:53;;;;;;;;;4.00;3.00;;;;;11.68;61.51;101415.28;5043284;28;45477;-64
2022/12/28 00:41:18;;;;;;;;;4.25;3.00;;;;;11.68;61.25;101405.63;5040367;28;55085;-64
2022/12/28 00:43:45;;;;;;;;;3.50;2.00;;;;;11.68;61.15;101395.16;5041021;28;45517;-64
2022/12/28 00:46:10;;;;;;;;;4.75;3.00;;;;;11.69;61.54;101393.41;5030172;28;46302;-64
2022/12/28 00:48:35;;;;;;;;;3.50;3.00;;;;;11.69;61.57;101398.66;5050426;28;45306;-64
2022/12/28 00:51:15;;;;;;;;;5.25;4.75;;;;;11.66;61.04;101394.31;5041313;28;45598;-65
2022/12/28 00:53:41;;;;;;;;;2.00;2.00;;;;;11.66;61.53;101401.34;5045403;28;45531;-64
2022/12/28 00:56:09;;;;;;;;;3.25;2.00;;;;;11.68;61.30;101402.16;5040988;28;45467;-65
2022/12/28 00:58:34;;;;;;;;;2.00;2.00;;;;;11.70;61.76;101400.38;5040404;28;45504;-64
2022/12/28 01:01:00;;;;;;;;;4.00;2.50;;;;;11.71;61.44;101397.72;5048608;28;45390;-65
2022/12/28 01:03:25;;;;;;;;;7.50;3.00;;;;;11.72;61.34;101398.56;5048113;28;45479;-64
2022/12/28 01:05:51;;;;;;;;;2.25;2.00;;;;;11.71;61.34;101394.22;5046198;28;45449;-64
2022/12/28 01:08:16;;;;;;;;;3.25;2.25;;;;;11.71;61.31;101394.22;5042067;28;65552;-64
2022/12/28 01:10:41;;;;;;;;;5.00;5.00;;;;;11.72;61.60;101385.47;5040451;28;63653;-64
2022/12/28 01:13:07;;;;;;;;;4.75;3.00;;;;;11.73;61.73;101390.66;5041537;28;46116;-65
2022/12/28 01:15:32;;;;;;;;;5.25;3.25;;;;;11.74;61.43;101383.69;5045891;28;46653;-64
2022/12/28 01:17:57;;;;;;;;;3.50;3.00;;;;;11.72;61.61;101388.97;5049495;28;57643;-63
2022/12/28 01:20:23;;;;;;;;;5.50;0.75;;;;;11.72;61.87;101382.84;5041202;28;45530;-65
2022/12/28 01:22:48;;;;;;;;;4.75;3.00;;;;;11.72;61.50;101375.84;5045945;28;65422;-64
2022/12/28 01:25:14;;;;;;;;;5.00;4.00;;;;;11.72;61.64;101370.59;5041178;28;45991;-64
2022/12/28 01:27:39;;;;;;;;;5.50;4.00;;;;;11.74;61.46;101373.19;5042511;28;45472;-66
2022/12/28 01:30:05;;;;;;;;;5.00;4.50;;;;;11.75;61.84;101375.75;5047202;28;45364;-65
2022/12/28 01:32:30;;;;;;;;;6.50;4.00;;;;;11.77;61.79;101389.72;5039357;28;47172;-64
2022/12/28 01:34:56;;;;;;;;;4.00;2.75;;;;;11.77;61.83;101373.13;5051683;28;45417;-64
2022/12/28 01:37:21;;;;;;;;;5.25;3.00;;;;;11.79;61.25;101376.56;5041608;28;56765;-64
2022/12/28 01:39:46;;;;;;;;;4.00;2.00;;;;;11.78;61.63;101373.09;5044760;28;45446;-64
2022/12/28 01:42:17;;;;;;;;;4.75;3.25;;;;;11.80;61.43;101378.31;5048933;28;49992;-65
2022/12/28 01:44:45;;;;;;;;;4.50;2.00;;;;;11.82;61.51;101379.13;5047044;28;45394;-65
2022/12/28 01:47:13;;;;;;;;;4.00;3.00;;;;;11.84;61.28;101371.22;5042911;28;45325;-65
2022/12/28 01:50:09;;;;;;;;;5.50;3.00;;;;;11.86;61.54;101380.78;5036151;28;45666;-65
2022/12/28 01:52:41;;;;;;;;;4.75;3.50;;;;;11.87;61.40;101373.78;5048297;28;45427;-64
2022/12/28 01:55:14;;;;;;;;;3.25;2.50;;;;;11.87;61.51;101366.78;5042243;28;47956;-65
2022/12/28 01:58:07;;;;;;;;;4.50;2.00;;;;;11.88;61.50;101368.50;5045863;28;45692;-65
2022/12/28 02:00:33;;;;;;;;;2.75;2.25;;;;;11.89;61.27;101357.09;5031003;28;45499;-66
2022/12/28 02:03:02;;;;;;;;;7.00;3.00;;;;;11.92;61.39;101356.22;5044196;28;45438;-65
2022/12/28 02:05:31;;;;;;;;;4.00;4.00;;;;;11.93;61.18;101356.19;5046344;28;45427;-65
2022/12/28 02:08:02;;;;;;;;;4.25;3.00;;;;;11.92;61.10;101346.59;5042684;28;45415;-62
2022/12/28 02:10:29;;;;;;;;;2.00;2.00;;;;;11.92;61.23;101343.97;5048595;28;45681;-62
2022/12/28 02:12:55;;;;;;;;;3.25;2.25;;;;;11.91;61.25;101344.84;5053322;28;54216;-63
2022/12/28 02:15:21;;;;;;;;;3.00;2.00;;;;;11.90;61.42;101339.63;5041583;28;45449;-65
2022/12/28 02:17:46;;;;;;;;;3.50;2.50;;;;;11.93;60.99;101345.69;5048142;28;45470;-63
2022/12/28 02:20:13;;;;;;;;;3.00;2.00;;;;;11.94;61.33;101336.06;5048888;28;63691;-63
2022/12/28 02:22:56;;;;;;;;;4.50;3.00;;;;;11.95;61.36;101327.28;5053177;28;45298;-62
2022/12/28 02:25:45;;;;;;;;;2.75;2.00;;;;;11.95;60.89;101332.53;5044840;28;46815;-63
2022/12/28 02:28:41;;;;;;;;;3.00;2.25;;;;;11.95;61.46;101327.28;5050888;28;45456;-63
2022/12/28 02:31:43;;;;;;;;;2.50;2.50;;;;;11.94;61.06;101330.81;5049808;28;45557;-65
2022/12/28 02:34:45;;;;;;;;;3.00;2.25;;;;;11.96;61.73;101329.88;4987429;28;45668;-66
2022/12/28 02:37:32;;;;;;;;;4.25;2.25;;;;;12.00;61.43;101319.31;5040060;28;46215;-64
2022/12/28 02:40:02;;;;;;;;;3.75;2.50;;;;;12.03;61.00;101319.25;5043493;28;45761;-64
2022/12/28 02:42:29;;;;;;;;;1.25;1.25;;;;;12.05;61.31;101323.56;5039785;28;45346;-65
2022/12/28 02:50:32;;;;;;;;;7.25;3.00;;;;;12.05;61.02;101306.97;5043389;28;45292;-65
2022/12/28 02:53:04;;;;;;;;;5.50;3.50;;;;;12.06;61.07;101304.31;5044984;28;45576;-65
2022/12/28 02:58:57;;;;;;;;;6.00;3.00;;;;;12.09;61.35;101305.97;5045892;28;45741;-64
2022/12/28 03:01:44;;;;;;;;;7.75;4.00;;;;;12.09;60.99;101296.38;5042093;28;45447;-64
2022/12/28 03:04:46;;;;;;;;;5.00;3.25;;;;;12.10;61.19;101292.81;5045184;28;45509;-65
2022/12/28 03:10:26;;;;;;;;;9.75;4.50;;;;;12.07;61.32;101295.50;5044228;28;45841;-65
2022/12/28 03:13:41;;;;;;;;;5.00;3.25;;;;;12.07;61.09;101298.13;5038576;28;45986;-65
2022/12/28 03:15:59;;;;;;;;;3.00;3.00;;;;;12.07;61.20;101290.25;5050350;28;45403;-65
2022/12/28 03:32:13;;;;;;;;;7.00;5.00;;;;;12.13;61.39;101276.16;5044145;28;46103;-65
2022/12/28 03:34:39;;;;;;;;;5.00;4.00;;;;;12.13;61.48;101265.66;5048892;28;66598;-64
2022/12/28 03:37:24;;;;;;;;;3.75;3.75;;;;;12.13;61.20;101266.53;5026893;28;58909;-63
2022/12/28 03:39:55;;;;;;;;;5.75;3.50;;;;;12.14;61.03;101260.34;5041648;28;45347;-68
2022/12/28 03:45:21;;;;;;;;;6.00;4.00;;;;;12.14;61.42;101243.75;5046117;28;45794;-65
2022/12/28 03:47:48;;;;;;;;;5.00;4.25;;;;;12.13;61.30;101244.69;5040744;28;45581;-65
2022/12/28 03:50:13;;;;;;;;;8.00;3.25;;;;;12.14;60.96;101249.84;5046451;28;45380;-65
2022/12/28 03:52:39;;;;;;;;;5.25;4.25;;;;;12.13;60.99;101244.69;5046172;28;66885;-65
2022/12/28 03:55:05;;;;;;;;;4.50;4.00;;;;;12.11;61.26;101243.81;5042843;28;45379;-65
2022/12/28 03:57:30;;;;;;;;;5.00;4.00;;;;;12.12;61.28;101249.03;5040033;28;45423;-64
2022/12/28 03:59:56;;;;;;;;;3.50;3.00;;;;;12.15;61.53;101240.25;5041374;28;68409;-65
2022/12/28 04:02:21;;;;;;;;;6.00;4.75;;;;;12.15;61.50;101242.88;5034798;28;46933;-65
2022/12/28 04:04:46;;;;;;;;;6.25;4.00;;;;;12.13;61.71;101239.44;5045482;28;45493;-64
2022/12/28 04:07:12;;;;;;;;;3.75;3.50;;;;;12.13;61.47;101242.91;5049006;28;60227;-65
2022/12/28 04:09:37;;;;;;;;;4.00;3.00;;;;;12.13;61.56;101229.78;5054309;28;45435;-65
2022/12/28 04:12:03;;;;;;;;;3.00;3.00;;;;;12.19;61.34;101222.66;5056188;28;45608;-65
2022/12/28 04:14:28;;;;;;;;;6.00;3.00;;;;;12.21;61.54;101226.97;5045103;28;45303;-64
2022/12/28 04:16:53;;;;;;;;;5.25;3.50;;;;;12.21;61.35;101220.84;5049825;28;45339;-64
2022/12/28 04:19:19;;;;;;;;;3.50;3.00;;;;;12.20;61.62;101216.50;5047467;28;62550;-66
2022/12/28 04:21:44;;;;;;;;;4.25;4.00;;;;;12.20;61.29;101212.13;5043690;28;46873;-64
2022/12/28 04:24:09;;;;;;;;;4.00;3.50;;;;;12.18;61.28;101208.66;5040870;28;65609;-65
2022/12/28 04:26:35;;;;;;;;;8.00;4.00;;;;;12.17;61.53;101203.47;5054167;28;54885;-64
2022/12/28 04:29:01;;;;;;;;;3.50;3.50;;;;;12.13;62.07;101194.81;5047212;28;47469;-64
2022/12/28 04:31:27;;;;;;;;;6.25;4.25;;;;;12.13;61.67;101193.06;5044047;28;45712;-65
2022/12/28 04:33:53;;;;;;;;;5.50;4.00;;;;;12.11;61.67;101187.00;5038404;28;45841;-64
2022/12/28 04:36:18;;;;;;;;;3.25;3.25;;;;;12.12;61.77;101193.09;5040903;28;51053;-64
2022/12/28 04:38:43;;;;;;;;;4.75;3.00;;;;;12.13;61.56;101193.06;5040835;28;63984;-65
2022/12/28 04:41:10;;;;;;;;;5.50;4.00;;;;;12.13;61.71;101184.34;5039248;28;63921;-64
2022/12/28 04:43:35;;;;;;;;;2.50;2.00;;;;;12.12;62.03;101185.22;5039954;28;45798;-64
2022/12/28 04:46:04;;;;;;;;;4.00;3.00;;;;;12.14;61.96;101183.41;5045971;28;45586;-64
2022/12/28 04:48:30;;;;;;;;;4.00;3.00;;;;;12.14;62.09;101173.78;5040054;28;45633;-64
2022/12/28 04:50:56;;;;;;;;;5.00;2.50;;;;;12.15;62.18;101193.03;5044609;28;45426;-64
2022/12/28 04:53:21;;;;;;;;;4.00;3.00;;;;;12.11;61.94;101186.09;5044072;28;53617;-64
2022/12/28 04:55:47;;;;;;;;;3.25;3.00;;;;;12.11;62.16;101180.88;5039281;28;45494;-65
2022/12/28 04:58:13;;;;;;;;;2.50;2.50;;;;;12.12;62.04;101185.22;5045626;28;45337;-65
2022/12/28 05:00:38;;;;;;;;;4.50;4.00;;;;;12.11;62.25;101180.88;5042469;28;46015;-65
2022/12/28 05:03:04;;;;;;;;;3.00;3.00;;;;;12.10;61.93;101181.78;5048367;28;45398;-64
2022/12/28 05:05:29;;;;;;;;;4.75;4.00;;;;;12.10;62.19;101177.38;5041084;28;45599;-64
2022/12/28 05:07:58;;;;;;;;;3.25;2.75;;;;;12.10;62.61;101180.00;5049372;28;45505;-65
2022/12/28 05:10:24;;;;;;;;;4.50;4.00;;;;;12.09;62.91;101169.56;5043736;28;46207;-64
2022/12/28 05:12:49;;;;;;;;;4.75;4.00;;;;;12.08;62.59;101168.69;5042534;28;45485;-64
2022/12/28 05:15:14;;;;;;;;;5.75;3.00;;;;;12.10;62.30;101168.66;5044551;28;60222;-65
2022/12/28 05:17:40;;;;;;;;;5.00;3.25;;;;;12.10;62.52;101169.53;5038483;28;45263;-64
2022/12/28 05:20:05;;;;;;;;;4.25;3.25;;;;;12.12;62.36;101167.72;5045104;28;64101;-64
2022/12/28 05:22:31;;;;;;;;;4.75;3.25;;;;;12.12;62.61;101164.22;5042649;28;45367;-65
2022/12/28 05:24:57;;;;;;;;;3.00;2.50;;;;;12.13;62.39;101173.84;5039328;28;59896;-64
2022/12/28 05:27:22;;;;;;;;;5.00;3.00;;;;;12.12;62.20;101164.22;5045551;28;45483;-65
2022/12/28 05:29:47;;;;;;;;;4.50;3.50;;;;;12.10;62.88;101163.41;5047060;28;59497;-64
2022/12/28 05:32:13;;;;;;;;;6.50;5.00;;;;;12.10;62.75;101153.78;5041793;28;58529;-64
2022/12/28 05:34:38;;;;;;;;;3.75;2.75;;;;;12.10;63.03;101163.41;5042205;28;45452;-63
2022/12/28 05:37:04;;;;;;;;;5.00;3.25;;;;;12.07;63.36;101147.75;5045883;28;61021;-64
2022/12/28 05:39:29;;;;;;;;;3.00;3.00;;;;;12.11;62.93;101152.88;5044408;28;68519;-63
2022/12/28 05:41:58;;;;;;;;;4.50;3.00;;;;;12.11;62.71;101149.38;5044760;28;45363;-64
2022/12/28 05:44:25;;;;;;;;;4.00;3.00;;;;;12.12;62.40;101154.59;5045187;28;45264;-63
2022/12/28 05:46:50;;;;;;;;;4.00;3.25;;;;;12.11;63.13;101152.00;5044128;28;45378;-63
2022/12/28 05:49:15;;;;;;;;;7.00;4.75;;;;;12.12;62.66;101151.13;5050498;28;66210;-64
2022/12/28 05:51:41;;;;;;;;;4.00;3.75;;;;;12.11;62.56;101149.38;5045616;28;63290;-66
2022/12/28 05:54:06;;;;;;;;;4.00;3.50;;;;;12.10;62.82;101143.28;5045778;28;45381;-63
2022/12/28 05:56:32;;;;;;;;;7.75;3.50;;;;;12.12;62.81;101154.59;5038943;28;45201;-64
2022/12/28 05:59:03;;;;;;;;;4.75;3.00;;;;;12.12;62.96;101146.72;5037974;28;45428;-64
2022/12/28 06:01:31;;;;;;;;;5.00;4.50;;;;;12.12;62.73;101144.09;5037104;28;45832;-64
2022/12/28 06:03:59;;;;;;;;;4.25;3.00;;;;;12.10;62.72;101140.66;5048945;28;45742;-63
2022/12/28 06:06:25;;;;;;;;;5.00;3.25;;;;;12.10;62.72;101139.81;5041894;28;45404;-64
2022/12/28 06:08:51;;;;;;;;;5.00;2.25;;;;;12.08;63.76;101133.75;5040369;28;47071;-64
2022/12/28 06:11:19;;;;;;;;;3.25;3.25;;;;;12.06;63.19;101143.44;5025074;28;45599;-64
2022/12/28 06:13:44;;;;;;;;;4.00;2.50;;;;;12.04;63.38;101132.09;5037253;28;45439;-65
2022/12/28 06:16:15;;;;;;;;;4.00;3.00;;;;;12.02;63.27;101129.50;5043593;28;45404;-63
2022/12/28 06:18:41;;;;;;;;;3.00;3.00;;;;;12.05;63.15;101121.56;5043696;28;46885;-63
2022/12/28 06:21:09;;;;;;;;;2.25;2.25;;;;;12.05;63.29;101112.84;5043968;28;45493;-63
2022/12/28 06:23:35;;;;;;;;;2.75;2.50;;;;;12.06;63.22;101112.78;5050121;28;45526;-64
2022/12/28 06:26:03;;;;;;;;;8.00;4.75;;;;;12.07;63.33;101113.66;5048032;28;45767;-63
2022/12/28 06:28:29;;;;;;;;;3.00;3.00;;;;;12.06;63.26;101111.94;5049081;28;47212;-63
2022/12/28 06:31:12;;;;;;;;;5.50;5.50;;;;;12.06;63.24;101106.69;5048412;28;45634;-63
2022/12/28 06:33:37;;;;;;;;;9.00;5.75;;;;;12.08;63.08;101099.66;5044867;28;46498;-64
2022/12/28 06:36:03;;;;;;;;;6.75;4.50;;;;;12.09;63.43;101101.34;5050533;28;45381;-63
2022/12/28 06:38:31;;;;;;;;;5.00;3.75;;;;;12.11;63.41;101096.91;5050946;28;47240;-64
2022/12/28 06:41:04;;;;;;;;;5.00;5.00;;;;;12.13;63.30;101092.50;5049434;28;45387;-63
2022/12/28 06:43:32;;;;;;;;;5.00;3.25;;;;;12.18;63.29;101087.13;5055076;28;45301;-63
2022/12/28 06:45:57;;;;;;;;;5.00;3.25;;;;;12.20;62.77;101096.69;5042496;28;45454;-64
2022/12/28 06:48:23;;;;;;;;;3.00;3.00;;;;;12.23;63.21;101093.94;5051728;28;45508;-63
2022/12/28 06:50:58;;;;;;;;;8.00;7.00;;;;;12.25;62.86;101086.91;5049822;28;65121;-63
2022/12/28 06:53:25;;;;;;;;;5.50;4.75;;;;;12.25;62.54;101088.66;5050456;28;45229;-63
2022/12/28 06:55:53;;;;;;;;;5.75;4.00;;;;;12.26;62.97;101093.88;5049091;28;45387;-64
2022/12/28 06:58:18;;;;;;;;;6.00;4.00;;;;;12.26;62.77;101079.91;5053593;28;45781;-64
2022/12/28 07:00:43;;;;;;;;;3.00;3.00;;;;;12.28;62.50;101080.72;5046560;28;64436;-63
2022/12/28 07:03:09;;;;;;;;;4.00;4.00;;;;;12.28;62.84;101071.06;5041870;28;62697;-64
2022/12/28 07:05:34;;;;;;;;;4.00;4.00;;;;;12.28;62.90;101078.09;5046087;28;59764;-63
2022/12/28 07:07:59;;;;;;;;;7.25;5.75;;;;;12.28;62.68;101078.94;5054938;28;65170;-63
2022/12/28 07:10:25;;;;;;;;;6.25;4.25;;;;;12.28;62.62;101073.69;5051591;28;60336;-64
2022/12/28 07:12:50;;;;;;;;;8.00;4.00;;;;;12.30;62.56;101071.03;5050228;28;45399;-63
2022/12/28 07:15:15;;;;;;;;;3.00;2.00;;;;;12.29;62.86;101072.81;5051852;28;60280;-61
2022/12/28 07:17:41;;;;;;;;;4.50;3.00;;;;;12.31;62.79;101062.25;5051825;28;63494;-61
2022/12/28 07:20:06;;;;;;;;;7.00;4.00;;;;;12.27;62.45;101058.88;5048011;28;63061;-65
2022/12/28 07:22:32;;;;;;;;;5.25;3.00;;;;;12.29;62.29;101061.44;5052420;28;45526;-63
2022/12/28 07:24:57;;;;;;;;;4.00;3.75;;;;;12.29;62.28;101053.56;5044568;28;45417;-65
2022/12/28 07:27:22;;;;;;;;;5.25;4.00;;;;;12.29;62.62;101050.94;5043133;28;45430;-64
2022/12/28 07:29:48;;;;;;;;;5.25;5.00;;;;;12.29;62.75;101046.56;5042460;28;57102;-64
2022/12/28 07:32:13;;;;;;;;;5.25;4.00;;;;;12.30;62.71;101045.63;5037700;28;56508;-65
2022/12/28 07:34:38;;;;;;;;;5.75;4.25;;;;;12.31;62.75;101042.13;5039021;28;64951;-64
2022/12/28 07:37:04;;;;;;;;;2.75;2.00;;;;;12.32;62.82;101042.97;5054106;28;54083;-61
2022/12/28 07:39:29;;;;;;;;;4.75;4.00;;;;;12.32;62.62;101035.09;5047594;28;54642;-63
2022/12/28 07:41:54;;;;;;;;;6.75;3.75;;;;;12.27;62.16;101027.38;5043741;28;58852;-63
2022/12/28 07:44:20;;;;;;;;;4.25;3.00;;;;;12.32;62.55;101041.22;5042120;28;65916;-63
2022/12/28 07:46:45;;;;;;;;;5.25;3.75;;;;;12.32;62.06;101042.97;5049265;28;60799;-63
2022/12/28 07:49:10;;;;;;;;;4.00;3.25;;;;;12.33;62.68;101035.06;5046746;28;57624;-63
2022/12/28 07:51:37;;;;;;;;;5.75;4.75;;;;;12.33;62.47;101028.97;5048245;28;45450;-62
2022/12/28 07:54:03;;;;;;;;;4.50;2.00;;;;;12.32;62.29;101028.09;5041557;28;45407;-62
2022/12/28 07:56:29;;;;;;;;;6.75;2.50;;;;;12.30;62.29;101027.25;5028651;28;47673;-63
2022/12/28 07:58:57;;;;;;;;;5.00;3.00;;;;;12.29;62.05;101025.56;5045940;28;45742;-63
2022/12/28 08:01:25;;;;;;;;;7.75;3.00;;;;;12.29;62.56;101015.06;5047491;28;45509;-63
2022/12/28 08:03:55;;;;;;;;;4.75;4.00;;;;;12.29;62.35;101011.59;5045224;28;45563;-63
2022/12/28 08:06:22;;;;;;;;;4.75;3.25;;;;;12.27;62.50;101011.63;5039914;28;45340;-63
2022/12/28 08:08:49;;;;;;;;;3.00;2.00;;;;;12.27;62.54;101009.00;5042281;28;46809;-63
2022/12/28 08:11:17;;;;;;;;;5.25;3.50;;;;;12.29;62.26;101006.34;5046546;28;45430;-63
2022/12/28 08:13:44;;;;;;;;;7.00;3.75;;;;;12.29;62.09;100995.84;5041602;28;45320;-64
2022/12/28 08:16:11;;;;;;;;;2.00;2.00;;;;;12.28;62.20;101004.59;5046576;28;46182;-63
2022/12/28 08:18:37;;;;;;;;;4.00;3.00;;;;;12.26;62.41;101002.03;5047119;28;45929;-61
2022/12/28 08:21:10;;;;;;;;;4.25;3.00;;;;;12.25;62.12;100986.31;5045741;28;45375;-62
2022/12/28 08:23:35;;;;;;;;;3.75;3.00;;;;;12.23;62.32;100980.28;5043788;28;45528;-62
2022/12/28 08:26:28;;;;;;;;;7.25;4.00;;;;;12.27;62.65;100985.38;5045851;28;63045;-61
2022/12/28 08:28:55;;;;;;;;;7.50;3.50;;;;;12.27;62.17;100979.25;5044264;28;45360;-62
2022/12/28 08:31:23;;;;;;;;;5.50;4.00;;;;;12.27;62.50;100969.66;5048542;28;47085;-62
2022/12/28 08:33:49;;;;;;;;;5.25;3.50;;;;;12.26;62.27;100969.69;5039663;28;45617;-62
2022/12/28 08:36:15;;;;;;;;;2.00;2.00;;;;;12.28;62.48;100971.34;5040927;28;46188;-62
2022/12/28 08:38:42;;;;;;;;;5.25;4.25;;;;;12.29;61.96;100973.06;5048793;28;45417;-62
2022/12/28 08:41:11;;;;;;;;;8.25;4.00;;;;;12.30;62.38;100966.06;5045232;28;46788;-62
2022/12/28 08:43:36;;;;;;;;;3.25;3.25;;;;;12.31;62.47;100973.03;5043957;28;45442;-62
2022/12/28 08:46:26;;;;;;;;;3.75;3.00;;;;;12.32;61.97;100965.13;5048124;28;63454;-62
2022/12/28 08:48:53;;;;;;;;;4.50;4.50;;;;;12.32;61.88;100969.50;5033375;28;45749;-63
2022/12/28 08:51:34;;;;;;;;;1.75;1.25;;;;;12.33;61.90;100963.34;5050416;28;45509;-63
2022/12/28 08:54:01;;;;;;;;;3.50;3.50;;;;;12.36;62.08;100971.13;5047792;28;45484;-62
2022/12/28 08:56:29;;;;;;;;;4.00;3.00;;;;;12.35;61.78;100964.16;5053795;28;46294;-62
2022/12/28 08:58:55;;;;;;;;;4.00;3.50;;;;;12.35;62.09;100964.16;5054437;28;45364;-62
2022/12/28 09:01:24;;;;;;;;;3.25;3.25;;;;;12.39;61.97;100957.03;5040816;28;45410;-63
2022/12/28 09:03:52;;;;;;;;;8.75;4.00;;;;;12.35;61.61;100951.88;5048231;28;45519;-63
2022/12/28 09:06:19;;;;;;;;;4.00;3.75;;;;;12.39;61.48;100957.03;5045200;28;45458;-63
2022/12/28 09:08:49;;;;;;;;;3.00;3.00;;;;;12.40;61.63;100940.41;5041552;28;45307;-63
2022/12/28 09:11:14;;;;;;;;;4.50;3.25;;;;;12.40;61.37;100940.41;5050919;28;45594;-63
2022/12/28 09:13:40;;;;;;;;;5.50;3.00;;;;;12.42;61.57;100943.84;5038501;28;46068;-63
2022/12/28 09:16:13;;;;;;;;;7.00;4.00;;;;;12.46;61.83;100942.81;5047828;28;46137;-62
2022/12/28 09:18:39;;;;;;;;;5.25;3.00;;;;;12.48;61.76;100949.75;5052350;28;45286;-63
2022/12/28 09:21:16;;;;;;;;;7.50;4.00;;;;;12.51;61.69;100940.91;5043119;28;45240;-62
2022/12/28 09:23:42;;;;;;;;;2.25;2.25;;;;;12.53;61.50;100941.72;5050330;28;45243;-62
2022/12/28 09:26:09;;;;;;;;;9.50;3.75;;;;;12.58;61.31;100937.19;5048972;28;45557;-62
2022/12/28 09:28:34;;;;;;;;;4.00;2.00;;;;;12.59;61.53;100930.16;5050821;28;45458;-62
2022/12/28 09:31:04;;;;;;;;;2.25;2.25;;;;;12.61;61.31;100939.72;5044681;28;45951;-62
2022/12/28 09:36:15;;;;;;;;;8.75;7.25;;;;;12.62;61.41;100927.44;5050091;28;45273;-63
2022/12/28 09:38:41;;;;;;;;;3.75;3.75;;;;;12.62;60.96;100933.53;5054675;28;45619;-62
2022/12/28 09:41:40;;;;;;;;;7.75;5.25;;;;;12.63;61.33;100934.41;5043918;28;45646;-63
2022/12/28 09:44:08;;;;;;;;;9.00;6.00;;;;;12.65;61.11;100919.47;5048867;28;45439;-62
2022/12/28 09:46:35;;;;;;;;;4.50;2.00;;;;;12.68;60.92;100925.47;5050086;28;46237;-63
2022/12/28 09:49:03;;;;;;;;;4.00;3.75;;;;;12.69;60.57;100936.84;5043396;28;64453;-62
2022/12/28 09:51:33;;;;;;;;;3.50;3.50;;;;;12.70;60.89;100931.53;5039758;28;45558;-63
2022/12/28 09:53:59;;;;;;;;;3.75;3.75;;;;;12.73;60.99;100928.81;5039192;28;45275;-63
2022/12/28 09:56:33;;;;;;;;;3.25;2.50;;;;;12.73;60.70;100920.09;5048026;28;49758;-62
2022/12/28 09:58:59;;;;;;;;;3.50;3.25;;;;;12.73;61.34;100927.97;5042207;28;45497;-61
2022/12/28 10:01:25;;;;;;;;;3.00;3.00;;;;;12.75;60.74;100930.50;5049233;28;45534;-71
2022/12/28 10:03:51;;;;;;;;;4.50;4.25;;;;;12.76;60.71;100922.59;5051485;28;45573;-62
2022/12/28 10:06:21;;;;;;;;;3.00;1.00;;;;;12.77;61.02;100932.19;5053697;28;46272;-62
2022/12/28 10:08:55;;;;;;;;;4.75;3.50;;;;;12.79;60.60;100916.41;5053751;28;45397;-62
2022/12/28 10:11:24;;;;;;;;;9.25;5.00;;;;;12.79;60.60;100912.00;5047687;28;45446;-62
2022/12/28 10:13:58;;;;;;;;;5.25;4.75;;;;;12.81;60.28;100919.81;5049239;28;45388;-62
2022/12/28 10:16:26;;;;;;;;;4.25;4.00;;;;;12.82;60.41;100918.91;5054023;28;46166;-62
2022/12/28 10:18:52;;;;;;;;;8.75;6.00;;;;;12.85;60.65;100903.88;5044024;28;45820;-62
2022/12/28 10:21:19;;;;;;;;;7.00;3.50;;;;;12.88;60.46;100902.94;5048820;28;46250;-62
2022/12/28 10:23:47;;;;;;;;;8.00;5.25;;;;;12.89;59.90;100908.16;5044174;28;45338;-62
2022/12/28 10:26:16;;;;;;;;;8.00;6.25;;;;;12.91;59.82;100897.59;5051555;28;45436;-62
2022/12/28 10:28:51;;;;;;;;;4.00;3.00;;;;;12.91;60.33;100895.81;5051937;28;45528;-62
2022/12/28 10:31:33;;;;;;;;;5.00;5.00;;;;;12.97;59.70;100888.66;5064955;28;45584;-61
2022/12/28 10:33:58;;;;;;;;;5.75;3.00;;;;;12.96;60.13;100895.69;5046391;28;45345;-62
2022/12/28 10:36:24;;;;;;;;;8.25;4.75;;;;;12.96;59.74;100898.31;5051707;28;45369;-62
2022/12/28 10:38:53;;;;;;;;;3.25;3.25;;;;;12.98;59.90;100888.59;5051565;28;45449;-62
2022/12/28 10:41:19;;;;;;;;;4.50;4.25;;;;;12.98;60.00;100895.59;5045273;28;45398;-62
2022/12/28 10:43:48;;;;;;;;;7.25;3.75;;;;;12.99;59.38;100897.31;5040346;28;45558;-62
2022/12/28 10:46:19;;;;;;;;;3.50;3.50;;;;;12.98;59.93;100882.47;5047223;28;46181;-62
2022/12/28 10:48:53;;;;;;;;;3.25;3.00;;;;;13.01;59.23;100885.00;5045982;28;45548;-61
2022/12/28 10:51:20;;;;;;;;;2.50;2.50;;;;;13.01;59.60;100877.09;5051970;28;45426;-61
2022/12/28 10:53:48;;;;;;;;;6.00;4.00;;;;;13.01;58.96;100871.84;5047282;28;45358;-61
2022/12/28 10:56:17;;;;;;;;;4.25;4.00;;;;;13.01;59.34;100875.34;5043854;28;47226;-61
2022/12/28 10:58:44;;;;;;;;;3.00;2.75;;;;;13.02;59.55;100869.19;5048421;28;45888;-62
2022/12/28 11:01:12;;;;;;;;;4.50;3.00;;;;;13.00;59.22;100855.25;5061068;28;45492;-62
2022/12/28 11:04:04;;;;;;;;;2.25;2.00;;;;;12.97;58.70;100867.63;5042597;28;45597;-62
2022/12/28 11:06:57;;;;;;;;;3.75;3.75;;;;;12.97;59.36;100867.63;5041694;28;46420;-62
2022/12/28 11:09:27;;;;;;;;;4.00;3.00;;;;;12.95;59.45;100851.91;5045514;28;45498;-61
2022/12/28 11:12:12;;;;;;;;;4.50;3.00;;;;;12.97;59.50;100841.38;5050058;28;45593;-61
2022/12/28 11:14:38;;;;;;;;;2.75;2.75;;;;;12.93;59.41;100822.22;5043927;28;45597;-61
2022/12/28 11:17:22;;;;;;;;;5.50;2.00;;;;;12.99;58.61;100818.50;5049009;28;63715;-61
2022/12/28 11:19:50;;;;;;;;;4.50;3.50;;;;;12.98;58.63;100812.41;5046209;28;45289;-62
2022/12/28 11:22:20;;;;;;;;;5.00;4.00;;;;;13.03;59.07;100802.59;5041268;28;45684;-63
2022/12/28 11:24:46;;;;;;;;;6.25;5.50;;;;;13.09;59.04;100785.75;5029053;28;45546;-62
2022/12/28 11:27:13;;;;;;;;;5.00;4.00;;;;;13.12;58.85;100793.53;5050282;28;62233;-63
2022/12/28 11:29:42;;;;;;;;;4.50;4.50;;;;;13.15;58.54;100779.41;5046453;28;45550;-63
2022/12/28 11:32:17;;;;;;;;;6.25;5.00;;;;;13.20;58.50;100773.06;5044746;28;45455;-62
2022/12/28 11:34:43;;;;;;;;;5.75;3.75;;;;;13.23;58.29;100775.59;5050586;28;45356;-62
2022/12/28 11:37:14;;;;;;;;;5.00;4.75;;;;;13.25;58.81;100778.16;5049042;28;45519;-62
2022/12/28 11:39:43;;;;;;;;;5.00;3.50;;;;;13.25;58.51;100771.13;5046704;28;45508;-62
2022/12/28 11:42:09;;;;;;;;;4.00;2.25;;;;;13.26;58.88;100771.97;5041817;28;45775;-63
2022/12/28 11:44:37;;;;;;;;;8.25;5.00;;;;;13.30;58.02;100760.44;5043893;28;45417;-63
2022/12/28 11:47:24;;;;;;;;;6.50;5.50;;;;;13.32;58.05;100761.28;5049871;28;45410;-63
2022/12/28 11:49:50;;;;;;;;;9.00;4.00;;;;;13.32;58.46;100753.38;5046269;28;46615;-65
2022/12/28 11:52:16;;;;;;;;;5.50;4.00;;;;;13.35;58.53;100750.66;5052027;28;45434;-63
2022/12/28 11:54:53;;;;;;;;;4.25;3.25;;;;;13.38;58.38;100744.41;5045915;28;45600;-63
2022/12/28 11:57:40;;;;;;;;;6.25;5.00;;;;;13.41;58.40;100749.56;5040615;28;47277;-63
2022/12/28 12:00:18;;;;;;;;;4.75;1.25;;;;;13.43;58.41;100745.09;5047342;28;45644;-63
2022/12/28 12:02:51;;;;;;;;;5.75;3.75;;;;;13.45;57.93;100740.63;5046065;28;45536;-67
2022/12/28 12:05:49;;;;;;;;;4.00;3.25;;;;;13.44;58.33;100728.41;5049657;27;45696;-62